createdAt,value
2024-03-07T00:01:08.954Z,7.70
2024-03-07T00:03:37.158Z,7.30
2024-03-07T00:06:05.359Z,7.30
2024-03-07T00:08:33.951Z,7.30
2024-03-07T00:11:02.608Z,7.60
2024-03-07T00:13:30.653Z,7.70
2024-03-07T00:15:58.991Z,7.20
2024-03-07T00:18:27.825Z,7.30
2024-03-07T00:20:56.137Z,7.40
2024-03-07T00:23:24.488Z,8.00
2024-03-07T00:25:52.743Z,7.00
2024-03-07T00:28:21.121Z,7.10
2024-03-07T00:30:49.365Z,7.00
2024-03-07T00:33:17.622Z,7.20
2024-03-07T00:35:46.020Z,7.30
2024-03-07T00:38:14.190Z,7.50
2024-03-07T00:40:42.447Z,7.50
2024-03-07T00:43:10.449Z,7.80
2024-03-07T00:45:38.439Z,7.30
2024-03-07T00:48:06.716Z,7.20
2024-03-07T00:50:35.075Z,7.40
2024-03-07T00:53:03.354Z,7.50
2024-03-07T00:55:31.328Z,7.40
2024-03-07T00:57:59.609Z,8.10
2024-03-07T01:00:29.517Z,8.10
2024-03-07T01:02:58.259Z,7.90
2024-03-07T01:05:26.572Z,7.70
2024-03-07T01:07:55.676Z,7.70
2024-03-07T01:10:23.708Z,7.10
2024-03-07T01:12:52.646Z,7.30
2024-03-07T01:15:20.633Z,8.20
2024-03-07T01:17:49.046Z,8.30
2024-03-07T01:20:17.298Z,8.30
2024-03-07T01:22:45.211Z,8.20
2024-03-07T01:25:13.805Z,9.10
2024-03-07T01:27:41.893Z,8.90
2024-03-07T01:30:10.460Z,8.80
2024-03-07T01:32:38.509Z,8.80
2024-03-07T01:35:10.824Z,9.30
2024-03-07T01:37:38.829Z,8.70
2024-03-07T01:40:07.901Z,8.70
2024-03-07T01:42:36.696Z,8.50
2024-03-07T01:45:05.224Z,8.30
2024-03-07T01:47:33.250Z,8.80
2024-03-07T01:50:01.836Z,8.80
2024-03-07T01:52:31.217Z,9.50
2024-03-07T01:54:59.740Z,8.90
2024-03-07T01:57:29.738Z,9.60
2024-03-07T01:59:58.249Z,9.80
2024-03-07T02:02:26.477Z,9.50
2024-03-07T02:04:54.440Z,9.50
2024-03-07T02:07:22.612Z,9.20
2024-03-07T02:09:50.986Z,9.80
2024-03-07T02:12:19.020Z,10.10
2024-03-07T02:14:47.038Z,10.60
2024-03-07T02:17:15.955Z,9.60
2024-03-07T02:19:43.930Z,9.40
2024-03-07T02:22:11.787Z,9.30
2024-03-07T02:24:39.905Z,9.90
2024-03-07T02:27:09.044Z,10.10
2024-03-07T02:29:37.391Z,9.10
2024-03-07T02:32:05.666Z,10.40
2024-03-07T02:34:33.766Z,9.50
2024-03-07T02:37:01.681Z,9.80
2024-03-07T02:39:29.834Z,9.40
2024-03-07T02:41:57.984Z,10.00
2024-03-07T02:44:25.917Z,9.20
2024-03-07T02:46:53.936Z,8.90
2024-03-07T02:49:22.445Z,9.20
2024-03-07T02:51:51.119Z,9.00
2024-03-07T02:54:19.193Z,8.80
2024-03-07T02:56:47.650Z,8.90
2024-03-07T02:59:15.802Z,8.80
2024-03-07T03:01:44.088Z,8.20
2024-03-07T03:04:12.131Z,7.80
2024-03-07T03:06:39.984Z,8.40
2024-03-07T03:09:07.931Z,8.00
2024-03-07T03:11:35.993Z,7.50
2024-03-07T03:14:05.059Z,7.60
2024-03-07T03:16:43.668Z,7.70
2024-03-07T03:19:16.628Z,7.40
2024-03-07T03:21:44.910Z,7.50
2024-03-07T03:24:12.999Z,7.30
2024-03-07T03:26:43.432Z,7.40
2024-03-07T03:29:13.112Z,6.80
2024-03-07T03:31:41.503Z,7.10
2024-03-07T03:34:11.246Z,6.40
2024-03-07T03:36:39.865Z,6.60
2024-03-07T03:39:08.397Z,6.90
2024-03-07T03:41:36.771Z,6.60
2024-03-07T03:44:05.117Z,7.40
2024-03-07T03:46:33.304Z,7.90
2024-03-07T03:49:01.509Z,7.80
2024-03-07T03:51:29.751Z,7.30
2024-03-07T03:53:57.899Z,7.80
2024-03-07T03:56:26.186Z,8.30
2024-03-07T03:58:54.523Z,7.80
2024-03-07T04:01:22.543Z,8.20
2024-03-07T04:03:50.586Z,8.30
2024-03-07T04:06:20.355Z,8.60
2024-03-07T04:08:48.572Z,8.40
2024-03-07T04:11:16.718Z,8.30
2024-03-07T04:13:47.078Z,8.50
2024-03-07T04:16:15.614Z,8.60
2024-03-07T04:18:43.702Z,8.80
2024-03-07T04:21:11.659Z,9.20
2024-03-07T04:23:41.725Z,8.80
2024-03-07T04:26:10.000Z,8.40
2024-03-07T04:28:38.017Z,8.90
2024-03-07T04:31:05.943Z,9.10
2024-03-07T04:33:33.989Z,8.30
2024-03-07T04:36:04.245Z,8.80
2024-03-07T04:38:32.737Z,8.60
2024-03-07T04:41:00.792Z,8.10
2024-03-07T04:43:29.407Z,8.70
2024-03-07T04:45:57.563Z,8.90
2024-03-07T04:48:25.679Z,8.70
2024-03-07T04:50:53.953Z,9.50
2024-03-07T04:53:22.129Z,8.40
2024-03-07T04:55:50.345Z,8.60
2024-03-07T04:58:19.427Z,8.30
2024-03-07T05:00:47.589Z,8.30
2024-03-07T05:03:15.717Z,8.60
2024-03-07T05:05:43.920Z,8.70
2024-03-07T05:08:13.308Z,8.90
2024-03-07T05:10:42.710Z,7.90
2024-03-07T05:13:11.984Z,8.00
2024-03-07T05:15:41.033Z,7.90
2024-03-07T05:18:09.576Z,7.10
2024-03-07T05:20:37.909Z,7.90
2024-03-07T05:23:06.906Z,7.10
2024-03-07T05:25:35.470Z,6.90
2024-03-07T05:28:05.294Z,6.60
2024-03-07T05:30:37.188Z,6.70
2024-03-07T05:33:06.138Z,6.90
2024-03-07T05:35:34.270Z,7.10
2024-03-07T05:38:06.097Z,8.70
2024-03-07T05:40:34.384Z,9.50
2024-03-07T05:43:02.433Z,10.40
2024-03-07T05:45:30.511Z,14.40
2024-03-07T05:48:00.021Z,16.10
2024-03-07T05:50:30.750Z,12.70
2024-03-07T05:52:58.677Z,12.80
2024-03-07T05:55:26.833Z,10.20
2024-03-07T05:57:54.829Z,10.80
2024-03-07T06:00:30.415Z,11.00
2024-03-07T06:02:58.812Z,10.00
2024-03-07T06:05:28.270Z,11.40
2024-03-07T06:07:57.929Z,11.10
2024-03-07T06:10:26.315Z,11.50
2024-03-07T06:13:05.258Z,11.80
2024-03-07T06:15:44.060Z,11.20
2024-03-07T06:18:12.803Z,11.20
2024-03-07T06:20:42.538Z,11.00
2024-03-07T06:23:13.405Z,9.90
2024-03-07T06:25:49.151Z,10.60
2024-03-07T06:28:18.970Z,11.10
2024-03-07T06:30:48.016Z,16.40
2024-03-07T06:33:17.979Z,16.60
2024-03-07T06:35:46.498Z,16.60
2024-03-07T06:38:15.038Z,17.60
2024-03-07T06:40:46.110Z,17.50
2024-03-07T06:45:43.399Z,15.90
2024-03-07T06:48:11.916Z,15.00
2024-03-07T06:50:40.358Z,11.80
2024-03-07T06:53:09.497Z,11.10
2024-03-07T06:55:39.542Z,10.50
2024-03-07T06:58:08.047Z,10.50
2024-03-07T07:00:38.388Z,11.40
2024-03-07T07:03:07.952Z,11.30
2024-03-07T07:05:37.578Z,11.10
2024-03-07T07:08:06.133Z,11.10
2024-03-07T07:10:34.519Z,11.30
2024-03-07T07:13:02.619Z,11.70
2024-03-07T07:15:31.094Z,9.90
2024-03-07T07:17:59.655Z,9.20
2024-03-07T07:20:28.637Z,9.10
2024-03-07T07:22:59.261Z,9.20
2024-03-07T07:25:28.465Z,8.60
2024-03-07T07:27:56.753Z,9.40
2024-03-07T07:30:25.308Z,9.40
2024-03-07T07:32:55.069Z,9.30
2024-03-07T07:35:24.226Z,9.70
2024-03-07T07:37:55.112Z,9.80
2024-03-07T07:40:25.595Z,9.70
2024-03-07T07:42:54.515Z,9.80
2024-03-07T07:45:24.398Z,11.10
2024-03-07T07:47:57.137Z,11.90
2024-03-07T07:50:25.980Z,12.30
2024-03-07T07:52:57.206Z,10.40
2024-03-07T07:55:27.926Z,10.50
2024-03-07T07:58:00.509Z,10.90
2024-03-07T08:00:38.392Z,9.80
2024-03-07T08:03:07.501Z,9.40
2024-03-07T08:05:37.528Z,9.80
2024-03-07T08:08:12.109Z,10.10
2024-03-07T08:10:44.684Z,9.60
2024-03-07T08:13:14.682Z,9.50
2024-03-07T08:15:43.879Z,10.00
2024-03-07T08:18:13.320Z,10.80
2024-03-07T08:20:42.900Z,9.30
2024-03-07T08:23:11.681Z,8.20
2024-03-07T08:25:42.042Z,8.10
2024-03-07T08:28:11.357Z,9.50
2024-03-07T08:30:39.421Z,9.20
2024-03-07T08:33:08.886Z,9.80
2024-03-07T08:35:37.652Z,11.00
2024-03-07T08:38:06.286Z,8.60
2024-03-07T08:40:35.704Z,8.40
2024-03-07T08:43:07.162Z,9.70
2024-03-07T08:45:36.248Z,9.20
2024-03-07T08:48:06.148Z,6.30
2024-03-07T08:50:35.943Z,6.10
2024-03-07T08:53:05.798Z,4.90
2024-03-07T08:55:37.612Z,4.20
2024-03-07T08:58:09.975Z,4.50
2024-03-07T09:00:39.980Z,5.10
2024-03-07T09:03:13.543Z,4.70
2024-03-07T09:05:43.332Z,4.50
2024-03-07T09:08:11.613Z,4.50
2024-03-07T09:10:42.403Z,4.90
2024-03-07T09:13:12.383Z,5.00
2024-03-07T09:15:40.856Z,4.60
2024-03-07T09:18:10.128Z,4.50
2024-03-07T09:20:42.796Z,4.50
2024-03-07T09:23:11.004Z,4.50
2024-03-07T09:25:41.072Z,4.50
2024-03-07T09:28:09.200Z,4.20
2024-03-07T09:30:39.985Z,4.70
2024-03-07T09:33:12.252Z,5.00
2024-03-07T09:35:40.828Z,5.70
2024-03-07T09:38:08.936Z,4.50
2024-03-07T09:40:40.068Z,4.30
2024-03-07T09:43:11.703Z,3.80
2024-03-07T09:45:42.294Z,4.00
2024-03-07T09:48:11.798Z,3.80
2024-03-07T09:50:41.965Z,3.50
2024-03-07T09:53:10.730Z,3.80
2024-03-07T09:55:38.915Z,3.30
2024-03-07T09:58:12.946Z,4.70
2024-03-07T10:00:41.851Z,3.70
2024-03-07T10:03:17.310Z,3.40
2024-03-07T10:05:45.778Z,3.50
2024-03-07T10:08:15.201Z,3.50
2024-03-07T10:10:48.876Z,3.40
2024-03-07T10:13:18.616Z,3.80
2024-03-07T10:15:46.896Z,3.90
2024-03-07T10:18:16.109Z,3.30
2024-03-07T10:20:45.952Z,3.10
2024-03-07T10:23:20.892Z,3.50
2024-03-07T10:25:49.179Z,3.10
2024-03-07T10:28:19.146Z,3.50
2024-03-07T10:30:48.789Z,3.00
2024-03-07T10:33:18.450Z,2.70
2024-03-07T10:35:51.069Z,2.70
2024-03-07T10:38:20.606Z,3.40
2024-03-07T10:40:55.411Z,3.00
2024-03-07T10:43:23.679Z,4.10
2024-03-07T10:45:57.406Z,3.80
2024-03-07T10:48:39.854Z,4.00
2024-03-07T10:51:23.297Z,4.90
2024-03-07T10:54:06.917Z,4.90
2024-03-07T10:56:43.907Z,5.20
2024-03-07T10:59:26.821Z,5.20
2024-03-07T11:02:13.844Z,5.30
2024-03-07T11:04:42.348Z,5.00
2024-03-07T11:07:14.283Z,5.20
2024-03-07T11:09:47.161Z,5.50
2024-03-07T11:12:16.560Z,7.00
2024-03-07T11:14:47.693Z,5.50
2024-03-07T11:19:46.926Z,12.80
2024-03-07T11:22:36.137Z,10.20
2024-03-07T11:25:11.661Z,5.50
2024-03-07T11:27:40.831Z,8.40
2024-03-07T11:30:11.223Z,8.20
2024-03-07T11:32:40.365Z,5.90
2024-03-07T11:35:23.647Z,4.60
2024-03-07T11:37:53.254Z,4.40
2024-03-07T11:40:21.333Z,3.90
2024-03-07T11:42:50.362Z,4.20
2024-03-07T11:45:26.606Z,3.80
2024-03-07T11:48:01.491Z,4.00
2024-03-07T11:50:30.769Z,4.20
2024-03-07T11:52:58.912Z,6.30
2024-03-07T11:55:29.840Z,9.90
2024-03-07T12:00:26.660Z,4.40
2024-03-07T12:02:55.730Z,4.20
2024-03-07T12:05:23.896Z,3.80
2024-03-07T12:07:52.022Z,4.10
2024-03-07T12:10:26.221Z,4.90
2024-03-07T12:12:57.688Z,5.60
2024-03-07T12:15:25.832Z,3.40
2024-03-07T12:17:57.742Z,3.40
2024-03-07T12:20:26.780Z,2.90
2024-03-07T12:23:04.041Z,3.80
2024-03-07T12:25:34.417Z,4.10
2024-03-07T12:28:13.436Z,7.30
2024-03-07T12:30:47.364Z,12.90
2024-03-07T12:33:15.589Z,6.00
2024-03-07T12:35:53.138Z,4.30
2024-03-07T12:38:24.040Z,3.80
2024-03-07T12:43:43.592Z,4.00
2024-03-07T12:46:16.794Z,4.20
2024-03-07T12:48:50.772Z,4.10
2024-03-07T12:51:20.752Z,4.20
2024-03-07T12:53:50.043Z,4.60
2024-03-07T12:56:21.730Z,5.70
2024-03-07T12:58:51.656Z,5.00
2024-03-07T13:01:22.097Z,3.90
2024-03-07T13:03:50.747Z,6.60
2024-03-07T13:06:27.396Z,18.00
2024-03-07T13:08:57.989Z,14.40
2024-03-07T13:11:31.273Z,10.60
2024-03-07T13:13:59.896Z,11.20
2024-03-07T13:16:30.641Z,7.50
2024-03-07T13:19:01.039Z,7.70
2024-03-07T13:21:31.613Z,7.30
2024-03-07T13:24:01.589Z,6.50
2024-03-07T13:26:33.100Z,9.40
2024-03-07T13:29:02.980Z,13.50
2024-03-07T13:31:31.399Z,15.00
2024-03-07T13:34:02.930Z,9.50
2024-03-07T13:36:31.478Z,7.40
2024-03-07T13:39:00.581Z,7.50
2024-03-07T13:41:29.814Z,6.80
2024-03-07T13:44:01.171Z,4.10
2024-03-07T13:46:30.428Z,4.20
2024-03-07T13:49:08.190Z,4.20
2024-03-07T13:51:37.112Z,5.50
2024-03-07T13:54:31.724Z,6.30
2024-03-07T13:57:21.144Z,5.90
2024-03-07T14:00:16.990Z,4.90
2024-03-07T14:03:14.639Z,5.40
2024-03-07T14:05:42.855Z,5.90
2024-03-07T14:08:29.569Z,7.90
2024-03-07T14:11:20.526Z,7.90
2024-03-07T14:14:08.531Z,7.60
2024-03-07T14:17:14.495Z,10.60
2024-03-07T14:20:01.048Z,7.50
2024-03-07T14:22:54.267Z,10.10
2024-03-07T14:25:45.187Z,7.00
2024-03-07T14:30:55.748Z,4.10
2024-03-07T14:33:55.828Z,3.90
2024-03-07T14:36:52.006Z,3.70
2024-03-07T14:39:27.176Z,3.60
2024-03-07T14:42:02.350Z,3.80
2024-03-07T14:44:32.719Z,4.40
2024-03-07T14:47:08.142Z,4.20
2024-03-07T14:49:37.514Z,5.50
2024-03-07T14:52:11.962Z,6.30
2024-03-07T14:54:41.650Z,5.60
2024-03-07T14:57:13.090Z,4.50
2024-03-07T14:59:42.685Z,5.10
2024-03-07T15:02:15.305Z,3.80
2024-03-07T15:04:44.483Z,3.40
2024-03-07T15:07:12.840Z,3.70
2024-03-07T15:09:40.955Z,5.30
2024-03-07T15:12:10.399Z,4.40
2024-03-07T15:14:40.973Z,3.80
2024-03-07T15:17:10.189Z,3.80
2024-03-07T15:19:38.410Z,3.60
2024-03-07T15:22:07.071Z,4.00
2024-03-07T15:24:38.125Z,3.30
2024-03-07T15:27:07.507Z,4.20
2024-03-07T15:29:37.947Z,7.70
2024-03-07T15:32:09.480Z,6.10
2024-03-07T15:34:39.173Z,5.50
2024-03-07T15:37:09.052Z,7.60
2024-03-07T15:39:40.124Z,7.90
2024-03-07T15:42:10.467Z,6.50
2024-03-07T15:44:40.897Z,4.90
2024-03-07T15:47:09.651Z,5.20
2024-03-07T15:49:41.962Z,4.70
2024-03-07T15:52:10.851Z,5.90
2024-03-07T15:54:39.117Z,6.00
2024-03-07T15:57:07.700Z,5.50
2024-03-07T15:59:36.508Z,6.10
2024-03-07T16:02:06.074Z,6.00
2024-03-07T16:04:35.463Z,9.50
2024-03-07T16:07:04.784Z,8.60
2024-03-07T16:09:33.059Z,7.00
2024-03-07T16:12:02.959Z,5.40
2024-03-07T16:14:31.957Z,5.00
2024-03-07T16:17:00.236Z,4.70
2024-03-07T16:19:28.384Z,5.10
2024-03-07T16:21:56.646Z,5.60
2024-03-07T16:24:24.982Z,4.80
2024-03-07T16:26:53.254Z,4.30
2024-03-07T16:29:21.451Z,4.00
2024-03-07T16:31:51.937Z,3.60
2024-03-07T16:34:22.631Z,3.60
2024-03-07T16:36:55.048Z,3.50
2024-03-07T16:39:25.721Z,3.50
2024-03-07T16:41:54.539Z,3.60
2024-03-07T16:44:23.837Z,6.50
2024-03-07T16:46:52.131Z,12.40
2024-03-07T16:49:20.296Z,11.80
2024-03-07T16:51:48.409Z,17.80
2024-03-07T16:54:17.078Z,25.60
2024-03-07T16:56:45.170Z,26.40
2024-03-07T16:59:13.229Z,19.70
2024-03-07T17:01:45.911Z,8.40
2024-03-07T17:04:14.326Z,6.80
2024-03-07T17:06:42.724Z,5.40
2024-03-07T17:09:20.816Z,5.30
2024-03-07T17:11:49.678Z,7.00
2024-03-07T17:14:17.801Z,7.50
2024-03-07T17:16:48.841Z,6.90
2024-03-07T17:19:19.084Z,6.80
2024-03-07T17:21:47.169Z,5.90
2024-03-07T17:24:20.427Z,6.10
2024-03-07T17:26:49.614Z,6.60
2024-03-07T17:29:17.791Z,6.20
2024-03-07T17:31:47.500Z,5.90
2024-03-07T17:34:16.535Z,6.20
2024-03-07T17:36:45.338Z,6.90
2024-03-07T17:39:16.261Z,6.40
2024-03-07T17:41:45.180Z,8.90
2024-03-07T17:44:18.301Z,9.50
2024-03-07T17:46:51.108Z,9.00
2024-03-07T17:49:25.198Z,7.50
2024-03-07T17:51:54.775Z,6.10
2024-03-07T17:54:24.671Z,7.20
2024-03-07T17:56:54.913Z,9.40
2024-03-07T17:59:23.241Z,11.80
2024-03-07T18:01:51.893Z,18.90
2024-03-07T18:04:21.341Z,25.50
2024-03-07T18:06:49.711Z,20.10
2024-03-07T18:09:29.300Z,14.60
2024-03-07T18:12:00.370Z,12.50
2024-03-07T18:14:34.272Z,12.90
2024-03-07T18:17:05.569Z,13.30
2024-03-07T18:19:37.508Z,10.20
2024-03-07T18:22:07.869Z,9.40
2024-03-07T18:24:36.445Z,10.00
2024-03-07T18:27:15.942Z,10.80
2024-03-07T18:29:44.070Z,10.00
2024-03-07T18:32:12.372Z,9.60
2024-03-07T18:34:40.557Z,11.60
2024-03-07T18:37:14.773Z,12.70
2024-03-07T18:39:43.342Z,15.20
2024-03-07T18:42:12.010Z,17.30
2024-03-07T18:44:40.196Z,17.90
2024-03-07T18:47:08.490Z,16.70
2024-03-07T18:49:37.172Z,16.00
2024-03-07T18:52:08.267Z,15.40
2024-03-07T18:54:36.445Z,17.00
2024-03-07T18:57:11.137Z,16.10
2024-03-07T18:59:39.576Z,22.90
2024-03-07T19:02:14.480Z,28.60
2024-03-07T19:04:45.184Z,33.60
2024-03-07T19:07:13.654Z,32.90
2024-03-07T19:09:41.918Z,24.90
2024-03-07T19:12:11.584Z,20.00
2024-03-07T19:14:40.785Z,17.80
2024-03-07T19:17:09.910Z,15.60
2024-03-07T19:19:38.323Z,16.00
2024-03-07T19:22:06.569Z,15.10
2024-03-07T19:24:34.905Z,23.40
2024-03-07T19:27:03.522Z,26.40
2024-03-07T19:29:32.607Z,30.50
2024-03-07T19:32:04.040Z,27.20
2024-03-07T19:34:34.060Z,26.90
2024-03-07T19:37:02.342Z,25.90
2024-03-07T19:39:30.395Z,26.40
2024-03-07T19:42:05.122Z,27.30
2024-03-07T19:44:45.489Z,26.60
2024-03-07T19:47:14.722Z,28.40
2024-03-07T19:49:43.048Z,27.90
2024-03-07T19:52:11.547Z,29.00
2024-03-07T19:54:40.345Z,29.70
2024-03-07T19:57:12.557Z,32.20
2024-03-07T19:59:40.992Z,33.80
2024-03-07T20:02:09.156Z,31.30
2024-03-07T20:04:37.526Z,30.60
2024-03-07T20:07:05.866Z,29.20
2024-03-07T20:09:37.061Z,29.70
2024-03-07T20:12:07.380Z,28.00
2024-03-07T20:14:35.975Z,28.10
2024-03-07T20:17:04.290Z,27.50
2024-03-07T20:19:35.157Z,26.90
2024-03-07T20:24:31.910Z,24.90
2024-03-07T20:27:01.492Z,24.60
2024-03-07T20:29:30.454Z,24.90
2024-03-07T20:32:01.252Z,24.70
2024-03-07T20:34:30.225Z,25.50
2024-03-07T20:36:59.919Z,27.30
2024-03-07T20:39:28.329Z,29.00
2024-03-07T20:42:00.745Z,29.50
2024-03-07T20:44:28.952Z,26.50
2024-03-07T20:46:57.868Z,27.40
2024-03-07T20:49:26.157Z,25.60
2024-03-07T20:51:56.282Z,24.40
2024-03-07T20:54:24.894Z,22.00
2024-03-07T20:56:56.030Z,20.50
2024-03-07T20:59:26.610Z,21.70
2024-03-07T21:01:54.856Z,20.50
2024-03-07T21:04:24.839Z,21.80
2024-03-07T21:06:53.702Z,20.80
2024-03-07T21:09:25.165Z,18.70
2024-03-07T21:11:54.266Z,20.70
2024-03-07T21:14:22.952Z,22.30
2024-03-07T21:16:51.946Z,24.30
2024-03-07T21:19:20.092Z,24.50
2024-03-07T21:21:48.185Z,30.60
2024-03-07T21:24:17.169Z,37.90
2024-03-07T21:26:45.328Z,31.80
2024-03-07T21:29:14.313Z,31.10
2024-03-07T21:31:42.544Z,31.00
2024-03-07T21:34:12.129Z,32.00
2024-03-07T21:36:44.959Z,38.50
2024-03-07T21:39:13.387Z,34.40
2024-03-07T21:41:41.785Z,28.30
2024-03-07T21:44:10.303Z,20.00
2024-03-07T21:46:42.494Z,15.50
2024-03-07T21:49:11.532Z,14.20
2024-03-07T21:51:39.781Z,13.20
2024-03-07T21:54:11.748Z,11.10
2024-03-07T21:56:40.075Z,9.70
2024-03-07T21:59:08.182Z,8.50
2024-03-07T22:01:37.934Z,9.60
2024-03-07T22:04:06.305Z,8.80
2024-03-07T22:06:34.791Z,9.00
2024-03-07T22:09:03.973Z,9.00
2024-03-07T22:11:33.135Z,10.00
2024-03-07T22:14:01.990Z,10.20
2024-03-07T22:16:30.518Z,9.40
2024-03-07T22:19:00.003Z,8.90
2024-03-07T22:21:29.435Z,8.30
2024-03-07T22:23:57.742Z,8.60
2024-03-07T22:26:28.874Z,8.30
2024-03-07T22:28:57.244Z,9.80
2024-03-07T22:31:25.298Z,8.40
2024-03-07T22:33:53.371Z,8.80
2024-03-07T22:36:21.922Z,8.50
2024-03-07T22:38:50.052Z,8.60
2024-03-07T22:41:18.422Z,8.70
2024-03-07T22:43:46.581Z,8.80
2024-03-07T22:46:14.732Z,8.70
2024-03-07T22:48:43.748Z,9.60
2024-03-07T22:51:12.721Z,9.70
2024-03-07T22:53:41.465Z,10.30
2024-03-07T22:56:12.995Z,10.20
2024-03-07T22:58:41.157Z,10.00
2024-03-07T23:01:09.260Z,9.70
2024-03-07T23:03:39.276Z,10.00
2024-03-07T23:06:08.026Z,13.30
2024-03-07T23:08:37.822Z,12.60
2024-03-07T23:11:06.096Z,12.20
2024-03-07T23:13:34.412Z,12.50
2024-03-07T23:16:02.461Z,13.10
2024-03-07T23:18:30.864Z,12.80
2024-03-07T23:21:00.779Z,12.60
2024-03-07T23:23:29.246Z,12.10
2024-03-07T23:25:57.434Z,12.70
2024-03-07T23:28:27.237Z,11.30
2024-03-07T23:30:55.285Z,11.30
2024-03-07T23:33:23.575Z,11.40
2024-03-07T23:35:51.675Z,18.70
2024-03-07T23:38:19.875Z,13.10
2024-03-07T23:40:48.415Z,11.50
2024-03-07T23:43:18.999Z,11.60
2024-03-07T23:45:48.317Z,11.50
2024-03-07T23:48:17.826Z,13.20
2024-03-07T23:50:46.126Z,12.30
2024-03-07T23:53:14.379Z,13.70
2024-03-07T23:55:42.732Z,12.50
2024-03-07T23:58:10.923Z,13.30
